Time;durP1;ratioP1;P1;durP2;ratioP2;P2;SDS_P1;SDS_P2;PMS_P1;PMS_P2;Temp;Humidity;BMP_temperature;BMP_pressure;BME280_temperature;BME280_humidity;BME280_pressure;Samples;Min_cycle;Max_cycle;Signal;HPM_P1;HPM_P2
2023/01/17 00:00:07;;;;;;;0.60;0.40;;;;;;;-0.77;100.00;90326.38;2534044;23;20006;-85
2023/01/17 00:01:09;;;;;;;0.90;0.40;;;;;;;-0.73;100.00;90329.66;2534587;23;20006;-86
2023/01/17 00:02:11;;;;;;;0.43;0.40;;;;;;;-0.84;100.00;90326.53;2545975;23;20470;-84
2023/01/17 00:03:12;;;;;;;1.08;0.40;;;;;;;-0.86;100.00;90323.59;2558656;23;20005;-83
2023/01/17 00:09:52;;;;;;;0.60;0.30;;;;;;;-0.61;100.00;90336.84;2549370;23;20068;-84
2023/01/17 00:10:53;;;;;;;0.30;0.30;;;;;;;-0.80;100.00;90329.81;2537261;23;20002;-83
2023/01/17 00:11:54;;;;;;;0.20;0.20;;;;;;;-0.77;100.00;90329.72;2521356;23;20017;-85
2023/01/17 00:13:02;;;;;;;1.08;0.50;;;;;;;-0.85;100.00;90333.69;2534075;23;20036;-85
2023/01/17 00:14:03;;;;;;;0.55;0.40;;;;;;;-0.95;100.00;90332.06;2542031;23;20014;-83
2023/01/17 00:15:05;;;;;;;0.65;0.40;;;;;;;-0.75;100.00;90339.78;2537817;23;20002;-82
2023/01/17 00:16:06;;;;;;;0.77;0.30;;;;;;;-0.90;100.00;90333.44;2535683;23;20073;-82
2023/01/17 00:17:07;;;;;;;0.30;0.20;;;;;;;-1.07;100.00;90340.59;2522752;23;20421;-85
2023/01/17 00:18:09;;;;;;;0.30;0.30;;;;;;;-1.18;100.00;90333.00;2521819;23;19998;-82
2023/01/17 00:26:02;;;;;;;0.32;0.32;;;;;;;-1.15;100.00;90341.91;2550337;23;20033;-85
2023/01/17 01:34:35;;;;;;;1.40;0.70;;;;;;;-2.67;100.00;90368.94;2557457;23;20091;-84
2023/01/17 01:35:36;;;;;;;0.70;0.52;;;;;;;-2.71;100.00;90362.31;2545313;23;20009;-85
2023/01/17 01:36:37;;;;;;;0.75;0.75;;;;;;;-2.71;100.00;90372.75;2545338;23;20009;-86
2023/01/17 01:37:38;;;;;;;1.23;0.80;;;;;;;-2.69;100.00;90360.00;2545384;23;20598;-84
2023/01/17 01:38:39;;;;;;;1.42;0.60;;;;;;;-2.58;100.00;90376.25;2531901;23;20009;-83
2023/01/17 01:39:40;;;;;;;1.00;0.60;;;;;;;-2.57;100.00;90372.50;2546120;23;20130;-83
2023/01/17 01:40:49;;;;;;;0.50;0.50;;;;;;;-2.55;100.00;90372.81;2533837;23;20086;-84
2023/01/17 01:41:50;;;;;;;0.98;0.55;;;;;;;-2.55;100.00;90375.44;2535039;23;20014;-83
2023/01/17 01:42:53;;;;;;;0.95;0.63;;;;;;;-2.55;100.00;90375.44;2522017;23;20073;-82
2023/01/17 01:43:57;;;;;;;1.63;0.77;;;;;;;-2.41;100.00;90364.75;2534180;23;20006;-85
2023/01/17 01:44:58;;;;;;;2.25;0.80;;;;;;;-2.40;100.00;90363.59;2546131;23;20056;-89
2023/01/17 01:46:00;;;;;;;0.90;0.70;;;;;;;-2.41;100.00;90361.38;2545756;23;20041;-85
2023/01/17 01:47:01;;;;;;;1.33;0.68;;;;;;;-2.42;100.00;90371.09;2546037;23;20009;-85
2023/01/17 01:48:13;;;;;;;2.03;0.60;;;;;;;-2.50;100.00;90364.53;2533520;23;20009;-83
2023/01/17 01:49:23;;;;;;;0.57;0.50;;;;;;;-2.50;100.00;90363.78;2535292;23;20010;-85
2023/01/17 01:50:25;;;;;;;1.70;0.60;;;;;;;-2.35;100.00;90368.34;2546586;23;20104;-82
2023/01/17 01:51:40;;;;;;;0.88;0.60;;;;;;;-2.47;100.00;90357.75;2544004;23;20006;-83
2023/01/17 01:52:47;;;;;;;1.67;0.60;;;;;;;-2.56;100.00;90359.03;2547941;23;20005;-88
2023/01/17 01:53:58;;;;;;;0.60;0.60;;;;;;;-2.37;100.00;90362.03;2558172;23;20005;-87
2023/01/17 01:55:06;;;;;;;0.70;0.68;;;;;;;-2.39;100.00;90361.72;2545340;23;20001;-83
2023/01/17 01:56:11;;;;;;;1.40;0.60;;;;;;;-2.46;100.00;90367.06;2524432;23;20006;-85
2023/01/17 01:57:17;;;;;;;2.15;0.60;;;;;;;-2.54;100.00;90358.63;2534834;23;20010;-85
2023/01/17 01:58:22;;;;;;;0.70;0.60;;;;;;;-2.58;100.00;90355.34;2534785;23;20006;-87
2023/01/17 01:59:24;;;;;;;0.75;0.70;;;;;;;-2.63;100.00;90358.44;2534040;23;20009;-84
2023/01/17 02:00:30;;;;;;;1.73;0.60;;;;;;;-2.59;100.00;90354.59;2534774;23;20419;-85
2023/01/17 02:01:32;;;;;;;0.80;0.50;;;;;;;-2.62;100.00;90358.03;2546001;23;20002;-83
2023/01/17 02:02:34;;;;;;;0.85;0.40;;;;;;;-2.66;100.00;90354.72;2522024;23;20436;-86
2023/01/17 02:03:39;;;;;;;0.93;0.80;;;;;;;-2.68;100.00;90359.59;2546444;23;20417;-85
2023/01/17 02:04:42;;;;;;;1.08;0.63;;;;;;;-2.72;100.00;90345.13;2546337;23;20005;-84
2023/01/17 02:05:43;;;;;;;1.95;0.57;;;;;;;-2.75;100.00;90343.31;2521156;23;20088;-84
2023/01/17 02:06:52;;;;;;;0.90;0.50;;;;;;;-2.78;100.00;90355.31;2533696;23;20002;-84
2023/01/17 02:08:03;;;;;;;0.70;0.50;;;;;;;-2.61;100.00;90353.53;2549063;23;20393;-86
2023/01/17 02:09:10;;;;;;;0.68;0.50;;;;;;;-2.70;100.00;90345.47;2557528;23;20008;-85
2023/01/17 02:10:12;;;;;;;0.85;0.55;;;;;;;-2.77;100.00;90351.56;2534570;23;20148;-83
2023/01/17 02:11:16;;;;;;;1.58;0.60;;;;;;;-2.72;100.00;90353.72;2520907;23;20006;-85
2023/01/17 02:12:18;;;;;;;0.82;0.50;;;;;;;-2.74;100.00;90350.03;2545440;23;20700;-85
2023/01/17 02:13:21;;;;;;;0.50;0.50;;;;;;;-2.78;100.00;90350.81;2534229;23;20001;-87
2023/01/17 02:14:22;;;;;;;3.15;0.60;;;;;;;-2.82;100.00;90359.84;2521976;23;19999;-86
2023/01/17 02:15:48;;;;;;;1.88;0.52;;;;;;;-2.80;100.00;90354.97;2521195;23;20002;-84
2023/01/17 02:29:09;;;;;;;0.95;0.70;;;;;;;-3.00;100.00;90354.94;2578303;22;20789;-82
2023/01/17 02:30:29;;;;;;;1.15;0.80;;;;;;;-2.84;100.00;90355.03;2539027;23;20032;-83
2023/01/17 02:31:42;;;;;;;0.88;0.70;;;;;;;-2.75;100.00;90361.63;2541790;23;20460;-81
2023/01/17 02:32:58;;;;;;;1.45;0.70;;;;;;;-2.70;100.00;90351.44;2539151;23;20016;-83
2023/01/17 02:34:01;;;;;;;1.00;0.60;;;;;;;-2.79;100.00;90349.34;2551880;23;20100;-83
2023/01/17 02:35:05;;;;;;;1.83;0.65;;;;;;;-2.71;100.00;90346.63;2546659;23;20388;-81
2023/01/17 02:36:28;;;;;;;1.02;0.70;;;;;;;-2.69;100.00;90350.28;2535248;23;20014;-83
2023/01/17 02:37:28;;;;;;;0.52;0.50;;;;;;;-2.59;100.00;90349.38;2554660;23;20007;-83
2023/01/17 02:38:38;;;;;;;0.50;0.50;;;;;;;-2.57;100.00;90351.59;2546036;23;20024;-82
2023/01/17 02:39:52;;;;;;;2.08;1.05;;;;;;;-2.61;100.00;90345.69;2537939;23;20015;-81
2023/01/17 02:41:04;;;;;;;1.67;0.60;;;;;;;-2.64;100.00;90344.59;2539247;23;20005;-83
2023/01/17 02:42:16;;;;;;;1.15;0.52;;;;;;;-2.60;100.00;90345.28;2550147;23;20005;-82
2023/01/17 02:43:21;;;;;;;0.77;0.52;;;;;;;-2.60;100.00;90347.88;2548808;23;20346;-84
2023/01/17 02:44:22;;;;;;;1.50;0.60;;;;;;;-2.56;100.00;90348.56;2535781;23;20322;-81
2023/01/17 02:45:23;;;;;;;1.00;0.43;;;;;;;-2.60;100.00;90349.75;2534208;23;20033;-81
2023/01/17 02:46:24;;;;;;;2.22;0.57;;;;;;;-2.58;100.00;90350.84;2545935;23;20063;-81
2023/01/17 02:47:28;;;;;;;0.57;0.50;;;;;;;-2.39;100.00;90352.00;2571162;23;20082;-83
2023/01/17 02:48:32;;;;;;;2.38;0.73;;;;;;;-2.42;100.00;90346.81;2558915;23;20008;-84
2023/01/17 02:49:33;;;;;;;1.05;0.50;;;;;;;-2.45;100.00;90345.03;2535449;23;20051;-83
2023/01/17 02:51:03;;;;;;;0.95;0.50;;;;;;;-2.55;100.00;90357.91;2534393;23;20013;-83
2023/01/17 02:52:39;;;;;;;0.73;0.63;;;;;;;-2.54;100.00;90345.56;2509002;23;20010;-82
2023/01/17 02:54:11;;;;;;;0.43;0.40;;;;;;;-2.52;100.00;90348.50;2565757;23;20047;-84
2023/01/17 02:55:40;;;;;;;0.50;0.50;;;;;;;-2.53;100.00;90347.75;2558749;23;20008;-82
2023/01/17 02:56:46;;;;;;;0.88;0.50;;;;;;;-2.49;100.00;90345.09;2551837;23;20383;-81
2023/01/17 02:57:59;;;;;;;0.55;0.50;;;;;;;-2.42;100.00;90350.16;2548341;23;20010;-83
2023/01/17 02:59:32;;;;;;;0.90;0.60;;;;;;;-2.31;100.00;90349.97;2547903;23;20522;-83
2023/01/17 03:00:38;;;;;;;0.82;0.60;;;;;;;-2.30;100.00;90346.22;2558955;23;20035;-83
2023/01/17 03:02:18;;;;;;;0.85;0.75;;;;;;;-2.36;100.00;90348.56;2559677;23;20364;-82
2023/01/17 03:03:29;;;;;;;1.52;0.65;;;;;;;-2.43;100.00;90337.50;2515254;23;20006;-80
2023/01/17 03:04:47;;;;;;;0.77;0.50;;;;;;;-2.39;100.00;90335.56;2560441;23;20047;-81
2023/01/17 03:06:01;;;;;;;0.63;0.50;;;;;;;-2.34;100.00;90330.59;2561876;23;20063;-81
2023/01/17 03:07:10;;;;;;;0.82;0.60;;;;;;;-2.34;100.00;90337.69;2548714;23;20024;-83
2023/01/17 03:08:12;;;;;;;0.65;0.50;;;;;;;-2.36;100.00;90337.38;2547896;23;20416;-83
2023/01/17 03:09:15;;;;;;;1.40;0.60;;;;;;;-2.39;100.00;90332.94;2546602;23;20427;-82
2023/01/17 03:10:18;;;;;;;1.45;0.60;;;;;;;-2.21;100.00;90335.22;2534546;23;20045;-83
2023/01/17 03:11:19;;;;;;;0.68;0.50;;;;;;;-2.22;100.00;90338.97;2546681;23;20208;-83
2023/01/17 03:12:20;;;;;;;1.50;0.57;;;;;;;-2.28;100.00;90336.84;2558222;23;20001;-81
2023/01/17 03:13:21;;;;;;;0.77;0.50;;;;;;;-2.24;100.00;90338.63;2558712;23;20151;-83
2023/01/17 03:14:22;;;;;;;0.70;0.55;;;;;;;-2.26;100.00;90338.31;2558648;23;20008;-82
2023/01/17 03:15:23;;;;;;;0.55;0.43;;;;;;;-2.33;100.00;90339.16;2558874;23;20043;-83
2023/01/17 03:16:27;;;;;;;1.30;0.55;;;;;;;-2.37;100.00;90333.25;2546336;23;20016;-83
2023/01/17 03:17:31;;;;;;;1.52;0.55;;;;;;;-2.46;100.00;90340.91;2546728;23;20041;-84
2023/01/17 03:18:33;;;;;;;1.25;0.60;;;;;;;-2.49;100.00;90331.28;2546957;23;20047;-83
2023/01/17 03:19:34;;;;;;;0.98;0.60;;;;;;;-2.49;100.00;90332.00;2558070;23;20401;-83
2023/01/17 03:20:35;;;;;;;1.10;0.60;;;;;;;-2.50;100.00;90335.00;2571450;23;20392;-81
2023/01/17 03:21:36;;;;;;;0.57;0.57;;;;;;;-2.51;100.00;90334.28;2558305;23;20341;-82
2023/01/17 03:22:37;;;;;;;1.52;0.50;;;;;;;-2.50;100.00;90327.94;2534162;23;20002;-84
2023/01/17 03:23:38;;;;;;;2.20;0.93;;;;;;;-2.46;100.00;90333.06;2533905;23;20441;-82
2023/01/17 03:24:39;;;;;;;2.33;0.70;;;;;;;-2.36;100.00;90334.75;2533459;23;20006;-83
2023/01/17 03:25:40;;;;;;;0.57;0.50;;;;;;;-2.14;100.00;90332.47;2533727;23;20010;-84
2023/01/17 03:26:43;;;;;;;0.98;0.60;;;;;;;-2.26;100.00;90330.47;2546383;23;20001;-82
2023/01/17 03:27:44;;;;;;;0.80;0.60;;;;;;;-2.28;100.00;90329.00;2542819;23;19997;-82
2023/01/17 03:28:45;;;;;;;1.55;0.68;;;;;;;-2.37;100.00;90330.66;2521350;23;20148;-83
2023/01/17 03:29:46;;;;;;;0.57;0.50;;;;;;;-2.36;100.00;90329.53;2531149;23;20085;-82
2023/01/17 03:30:47;;;;;;;0.50;0.50;;;;;;;-2.30;100.00;90333.13;2542921;23;20005;-82
2023/01/17 03:31:48;;;;;;;0.50;0.47;;;;;;;-2.31;100.00;90323.81;2530972;23;20085;-81
2023/01/17 03:32:49;;;;;;;0.60;0.60;;;;;;;-2.30;100.00;90330.53;2519135;23;20136;-82
2023/01/17 03:33:50;;;;;;;0.80;0.63;;;;;;;-1.81;100.00;90326.16;2530998;23;20041;-82
2023/01/17 03:34:51;;;;;;;1.65;0.68;;;;;;;-1.97;100.00;90333.25;2543737;23;20005;-83
2023/01/17 03:35:53;;;;;;;1.50;0.60;;;;;;;-2.05;100.00;90325.53;2531188;23;20010;-83
2023/01/17 03:36:54;;;;;;;0.90;0.60;;;;;;;-1.87;100.00;90333.00;2531468;23;20460;-82
2023/01/17 03:37:55;;;;;;;0.85;0.63;;;;;;;-1.94;100.00;90329.81;2542729;23;20009;-81
2023/01/17 03:38:56;;;;;;;0.52;0.50;;;;;;;-2.08;100.00;90328.22;2530728;23;20006;-82
2023/01/17 03:39:57;;;;;;;0.73;0.50;;;;;;;-2.18;100.00;90331.78;2519222;23;20006;-83
2023/01/17 03:40:58;;;;;;;0.85;0.57;;;;;;;-2.12;100.00;90330.16;2519018;23;20344;-82
2023/01/17 03:41:59;;;;;;;1.48;0.50;;;;;;;-2.05;100.00;90332.66;2530879;23;20591;-83
2023/01/17 03:43:00;;;;;;;0.70;0.70;;;;;;;-2.13;100.00;90326.81;2531572;23;20013;-83
2023/01/17 03:44:01;;;;;;;0.65;0.40;;;;;;;-2.16;100.00;90322.38;2542893;23;20028;-84
2023/01/17 03:45:02;;;;;;;0.85;0.50;;;;;;;-2.18;100.00;90323.94;2530710;23;20006;-82
2023/01/17 03:46:05;;;;;;;0.40;0.40;;;;;;;-2.21;100.00;90325.47;2519306;23;20042;-83
2023/01/17 03:47:10;;;;;;;0.50;0.50;;;;;;;-2.37;100.00;90326.19;2531625;23;20314;-81
2023/01/17 03:48:11;;;;;;;0.77;0.50;;;;;;;-2.41;100.00;90322.16;2532119;23;20010;-82
2023/01/17 03:49:12;;;;;;;0.93;0.52;;;;;;;-2.55;100.00;90326.53;2519156;23;20010;-82
2023/01/17 03:50:13;;;;;;;0.88;0.57;;;;;;;-2.55;100.00;90323.91;2530602;23;20009;-83
2023/01/17 03:51:14;;;;;;;1.15;0.50;;;;;;;-2.54;100.00;90324.66;2530706;23;20404;-83
2023/01/17 03:52:15;;;;;;;0.43;0.43;;;;;;;-2.60;100.00;90326.97;2519058;23;20010;-81
2023/01/17 03:53:16;;;;;;;1.95;0.47;;;;;;;-2.65;100.00;90319.59;2531127;23;20005;-81
2023/01/17 03:54:17;;;;;;;1.25;0.50;;;;;;;-2.66;100.00;90318.13;2530913;23;20065;-82
2023/01/17 03:55:18;;;;;;;2.38;0.55;;;;;;;-2.68;100.00;90330.84;2519243;23;20126;-82
2023/01/17 03:56:19;;;;;;;1.15;1.08;;;;;;;-2.56;100.00;90332.13;2530739;23;20013;-82
2023/01/17 03:57:20;;;;;;;0.80;0.50;;;;;;;-2.60;100.00;90326.97;2530623;23;20006;-83
2023/01/17 03:58:21;;;;;;;0.50;0.50;;;;;;;-2.60;100.00;90329.59;2519064;23;20009;-82
2023/01/17 03:59:22;;;;;;;1.00;0.68;;;;;;;-2.64;100.00;90326.28;2519173;23;20092;-81
2023/01/17 04:00:23;;;;;;;1.25;0.80;;;;;;;-2.67;100.00;90327.13;2519105;23;20025;-82
2023/01/17 04:01:24;;;;;;;2.30;0.90;;;;;;;-2.65;100.00;90327.44;2519167;23;20473;-81
2023/01/17 04:02:25;;;;;;;1.67;0.73;;;;;;;-2.70;100.00;90333.13;2518694;23;20014;-82
2023/01/17 04:03:26;;;;;;;0.57;0.57;;;;;;;-2.59;100.00;90331.06;2518796;23;20085;-81
2023/01/17 04:04:27;;;;;;;0.70;0.50;;;;;;;-2.55;100.00;90331.00;2519154;23;20375;-80
2023/01/17 04:05:27;;;;;;;0.73;0.73;;;;;;;-2.36;100.00;90326.91;2519227;23;20430;-81
2023/01/17 04:06:28;;;;;;;0.52;0.52;;;;;;;-2.34;100.00;90329.84;2519056;23;20006;-82
2023/01/17 04:07:29;;;;;;;1.23;0.50;;;;;;;-2.10;100.00;90328.63;2531374;23;20009;-82
2023/01/17 04:08:30;;;;;;;0.65;0.43;;;;;;;-2.29;100.00;90324.16;2542656;23;20013;-83
2023/01/17 04:09:33;;;;;;;0.45;0.40;;;;;;;-2.32;100.00;90320.47;2542739;23;20444;-83
2023/01/17 04:10:34;;;;;;;0.43;0.40;;;;;;;-2.39;100.00;90317.97;2543285;23;20016;-80
2023/01/17 04:11:35;;;;;;;1.00;0.50;;;;;;;-2.54;100.00;90330.59;2519097;23;20014;-82
2023/01/17 04:12:37;;;;;;;0.77;0.60;;;;;;;-2.47;100.00;90326.38;2531114;23;20017;-83
2023/01/17 04:13:37;;;;;;;1.65;0.50;;;;;;;-2.55;100.00;90316.06;2531218;23;20026;-83
2023/01/17 04:14:39;;;;;;;0.98;0.60;;;;;;;-2.60;100.00;90311.28;2530263;23;20101;-82
2023/01/17 04:15:41;;;;;;;0.50;0.40;;;;;;;-2.59;100.00;90309.41;2530649;23;20017;-81
2023/01/17 04:16:42;;;;;;;2.28;0.60;;;;;;;-2.58;100.00;90313.50;2531353;23;20008;-82
2023/01/17 04:17:43;;;;;;;0.85;0.60;;;;;;;-2.59;100.00;90318.00;2531102;23;20410;-82
2023/01/17 04:18:44;;;;;;;0.50;0.50;;;;;;;-2.60;100.00;90313.91;2531020;23;20013;-83
2023/01/17 04:19:45;;;;;;;0.95;0.50;;;;;;;-2.59;100.00;90312.78;2530644;23;20005;-83
2023/01/17 04:20:46;;;;;;;1.42;0.60;;;;;;;-2.57;100.00;90313.09;2530631;23;20053;-81
2023/01/17 04:21:48;;;;;;;1.08;0.47;;;;;;;-2.57;100.00;90312.38;2518686;23;20017;-82
2023/01/17 04:22:48;;;;;;;1.58;0.43;;;;;;;-2.62;100.00;90305.00;2518624;23;20017;-83
2023/01/17 04:23:49;;;;;;;0.82;0.40;;;;;;;-2.64;100.00;90305.38;2531006;23;20006;-82
2023/01/17 04:24:50;;;;;;;1.38;0.50;;;;;;;-2.62;100.00;90310.22;2531147;23;20604;-83
2023/01/17 04:25:51;;;;;;;1.10;0.47;;;;;;;-2.60;100.00;90306.06;2530417;23;20489;-83
2023/01/17 04:26:52;;;;;;;0.80;0.40;;;;;;;-2.62;100.00;90305.72;2530396;23;20006;-82
2023/01/17 04:27:53;;;;;;;0.70;0.55;;;;;;;-2.60;100.00;90306.06;2531160;23;20019;-83
2023/01/17 04:28:54;;;;;;;1.95;0.60;;;;;;;-2.58;100.00;90297.81;2531011;23;20025;-83
2023/01/17 04:29:55;;;;;;;0.70;0.70;;;;;;;-2.53;100.00;90316.38;2543385;23;20330;-81
2023/01/17 04:30:58;;;;;;;1.55;0.50;;;;;;;-2.44;100.00;90304.66;2530923;23;20045;-83
2023/01/17 04:31:59;;;;;;;0.93;0.50;;;;;;;-2.45;100.00;90297.97;2531092;23;20010;-82
2023/01/17 04:33:00;;;;;;;2.35;0.77;;;;;;;-2.45;100.00;90303.19;2543092;23;20009;-82
2023/01/17 04:34:01;;;;;;;1.65;0.63;;;;;;;-2.50;100.00;90298.41;2530843;23;20104;-83
2023/01/17 04:35:03;;;;;;;2.05;0.80;;;;;;;-2.49;100.00;90292.06;2518964;23;20010;-82
2023/01/17 04:36:05;;;;;;;1.17;0.57;;;;;;;-2.44;100.00;90297.53;2531550;23;20478;-82
2023/01/17 04:37:06;;;;;;;1.13;1.05;;;;;;;-2.44;100.00;90294.19;2543651;23;20005;-83
2023/01/17 04:38:07;;;;;;;1.42;1.02;;;;;;;-2.42;100.00;90297.88;2530476;23;20002;-83
2023/01/17 04:39:08;;;;;;;0.55;0.50;;;;;;;-2.43;100.00;90293.78;2518642;23;20025;-83
2023/01/17 04:40:10;;;;;;;0.63;0.60;;;;;;;-2.38;100.00;90287.34;2543193;23;20009;-82
2023/01/17 04:41:11;;;;;;;0.95;0.50;;;;;;;-2.38;100.00;90295.91;2530644;23;20009;-82
2023/01/17 04:42:12;;;;;;;1.30;0.60;;;;;;;-2.38;100.00;90290.69;2530906;23;20330;-81
2023/01/17 04:43:13;;;;;;;2.30;0.60;;;;;;;-2.35;100.00;90289.16;2542692;23;20001;-82
2023/01/17 04:44:14;;;;;;;0.65;0.50;;;;;;;-2.34;100.00;90296.59;2530546;23;20061;-84
2023/01/17 04:45:16;;;;;;;0.75;0.50;;;;;;;-2.40;100.00;90287.00;2519135;23;20013;-83
2023/01/17 04:46:16;;;;;;;1.23;0.68;;;;;;;-2.39;100.00;90283.25;2519020;23;20016;-83
2023/01/17 04:47:17;;;;;;;1.15;0.60;;;;;;;-2.31;100.00;90292.44;2530963;23;20456;-83
2023/01/17 04:48:18;;;;;;;0.95;0.40;;;;;;;-2.30;100.00;90283.44;2543311;23;20010;-83
2023/01/17 04:49:19;;;;;;;0.80;0.50;;;;;;;-2.31;100.00;90282.72;2555021;23;20460;-81
2023/01/17 04:50:20;;;;;;;0.63;0.50;;;;;;;-2.29;100.00;90280.41;2542909;23;20005;-81
2023/01/17 04:51:21;;;;;;;0.50;0.50;;;;;;;-2.28;100.00;90281.91;2518878;23;20073;-81
2023/01/17 04:52:22;;;;;;;1.33;0.70;;;;;;;-2.24;100.00;90286.31;2531118;23;20044;-81
2023/01/17 04:53:23;;;;;;;0.73;0.43;;;;;;;-2.20;100.00;90284.34;2530917;23;20021;-83
2023/01/17 04:54:24;;;;;;;0.73;0.52;;;;;;;-2.11;100.00;90268.84;2531192;23;20009;-82
2023/01/17 04:55:25;;;;;;;1.70;0.63;;;;;;;-2.14;100.00;90269.66;2554715;23;20044;-82
2023/01/17 04:56:26;;;;;;;0.82;0.50;;;;;;;-2.27;100.00;90274.78;2542816;23;20001;-82
2023/01/17 04:57:27;;;;;;;0.47;0.35;;;;;;;-2.31;100.00;90268.91;2531023;23;20002;-82
2023/01/17 04:58:29;;;;;;;1.13;0.50;;;;;;;-2.35;100.00;90278.69;2543254;23;20461;-83
2023/01/17 04:59:29;;;;;;;0.90;0.40;;;;;;;-2.39;100.00;90275.41;2530979;23;20013;-81
2023/01/17 05:00:30;;;;;;;0.68;0.43;;;;;;;-2.38;100.00;90269.03;2531042;23;20367;-83
2023/01/17 05:01:31;;;;;;;1.00;0.50;;;;;;;-2.43;100.00;90265.00;2530370;23;20041;-83
2023/01/17 05:02:32;;;;;;;1.25;0.50;;;;;;;-2.49;100.00;90265.91;2530706;23;20044;-81
2023/01/17 05:03:33;;;;;;;0.57;0.55;;;;;;;-2.38;100.00;90259.28;2543279;23;20010;-83
2023/01/17 05:04:34;;;;;;;1.23;0.52;;;;;;;-2.31;100.00;90259.16;2531086;23;20589;-81
2023/01/17 05:05:35;;;;;;;0.75;0.52;;;;;;;-2.38;100.00;90258.56;2530654;23;20033;-81
2023/01/17 05:06:36;;;;;;;1.08;0.60;;;;;;;-2.44;100.00;90262.81;2543342;23;20017;-83
2023/01/17 05:07:37;;;;;;;1.20;0.55;;;;;;;-2.31;100.00;90255.81;2542754;23;20006;-82
2023/01/17 05:08:38;;;;;;;0.80;0.60;;;;;;;-2.25;100.00;90254.19;2530627;23;20013;-82
2023/01/17 05:09:39;;;;;;;1.38;0.50;;;;;;;-2.35;100.00;90260.38;2543268;23;20009;-83
2023/01/17 05:10:40;;;;;;;0.82;0.50;;;;;;;-2.42;100.00;90257.91;2555089;23;20471;-83
2023/01/17 05:11:41;;;;;;;1.00;0.50;;;;;;;-2.53;100.00;90264.09;2542457;23;20020;-82
2023/01/17 05:12:42;;;;;;;0.63;0.40;;;;;;;-2.57;100.00;90258.19;2519152;23;20006;-82
2023/01/17 05:13:42;;;;;;;0.80;0.50;;;;;;;-2.63;100.00;90256.47;2517936;23;20100;-83
2023/01/17 05:14:43;;;;;;;1.30;0.50;;;;;;;-2.82;100.00;90255.31;2518692;23;20373;-82
2023/01/17 05:15:45;;;;;;;0.65;0.50;;;;;;;-2.83;100.00;90256.47;2519104;23;20010;-81
2023/01/17 05:16:46;;;;;;;1.88;0.60;;;;;;;-2.88;100.00;90254.31;2519538;23;20081;-81
2023/01/17 05:17:47;;;;;;;1.48;0.60;;;;;;;-2.91;100.00;90249.88;2530655;23;20010;-82
2023/01/17 05:18:52;;;;;;;1.60;0.52;;;;;;;-3.01;100.00;90251.56;2530735;23;20002;-83
2023/01/17 05:19:53;;;;;;;0.60;0.60;;;;;;;-3.01;100.00;90256.06;2519914;23;20009;-82
2023/01/17 05:21:00;;;;;;;1.75;0.63;;;;;;;-3.08;100.00;90249.06;2531023;23;20056;-83
2023/01/17 05:22:02;;;;;;;0.63;0.63;;;;;;;-3.03;100.00;90253.84;2533390;23;20002;-84
2023/01/17 05:23:03;;;;;;;0.55;0.50;;;;;;;-3.06;100.00;90255.38;2530946;23;20005;-84
2023/01/17 05:24:04;;;;;;;3.47;0.68;;;;;;;-3.12;100.00;90254.34;2530466;23;20220;-82
2023/01/17 05:25:06;;;;;;;1.27;0.63;;;;;;;-3.17;100.00;90260.06;2530782;23;20319;-82
2023/01/17 05:26:07;;;;;;;1.10;0.65;;;;;;;-3.21;100.00;90256.75;2530190;23;20370;-82
2023/01/17 05:27:08;;;;;;;0.80;0.50;;;;;;;-3.27;100.00;90253.16;2530851;23;20422;-81
2023/01/17 05:28:11;;;;;;;1.15;0.60;;;;;;;-3.26;100.00;90259.84;2530449;23;20160;-83
2023/01/17 05:29:12;;;;;;;0.93;0.60;;;;;;;-3.26;100.00;90252.00;2531084;23;20013;-82
2023/01/17 05:30:13;;;;;;;0.60;0.60;;;;;;;-3.25;100.00;90248.25;2530766;23;20048;-83
2023/01/17 05:31:14;;;;;;;2.17;0.70;;;;;;;-3.26;100.00;90256.50;2530967;23;20465;-84
2023/01/17 05:32:15;;;;;;;1.88;0.60;;;;;;;-3.24;100.00;90249.00;2530694;23;20377;-83
2023/01/17 05:33:16;;;;;;;0.82;0.70;;;;;;;-3.31;100.00;90257.69;2530057;23;20010;-82
2023/01/17 05:34:17;;;;;;;0.52;0.52;;;;;;;-3.36;100.00;90250.31;2542726;23;20009;-84
2023/01/17 05:35:21;;;;;;;2.63;1.00;;;;;;;-3.48;100.00;90243.06;2518408;23;20002;-83
2023/01/17 05:36:22;;;;;;;2.45;1.30;;;;;;;-3.52;100.00;90245.72;2520161;23;20013;-82
2023/01/17 05:37:23;;;;;;;4.18;2.33;;;;;;;-3.61;100.00;90245.50;2530558;23;20014;-83
2023/01/17 05:38:24;;;;;;;4.20;2.58;;;;;;;-3.62;100.00;90241.44;2530697;23;20010;-83
2023/01/17 05:39:25;;;;;;;5.43;3.42;;;;;;;-3.63;100.00;90240.69;2530844;23;20080;-83
2023/01/17 05:40:30;;;;;;;5.18;3.15;;;;;;;-3.64;100.00;90239.22;2543098;23;20010;-82
2023/01/17 05:41:30;;;;;;;8.10;3.95;;;;;;;-3.68;100.00;90243.03;2530747;23;20006;-82
2023/01/17 05:42:31;;;;;;;6.13;3.83;;;;;;;-3.61;100.00;90235.06;2518685;23;20029;-82
2023/01/17 05:43:32;;;;;;;5.28;3.60;;;;;;;-3.70;100.00;90238.19;2517734;23;20504;-83
2023/01/17 05:44:33;;;;;;;6.20;4.60;;;;;;;-3.82;100.00;90241.34;2534451;23;20012;-82
2023/01/17 05:45:34;;;;;;;6.38;4.35;;;;;;;-3.81;100.00;90238.38;2534626;23;20009;-84
2023/01/17 05:46:35;;;;;;;6.40;4.22;;;;;;;-3.83;100.00;90237.28;2513073;23;20438;-83
2023/01/17 05:47:36;;;;;;;6.07;4.30;;;;;;;-3.81;100.00;90245.47;2538887;23;20193;-82
2023/01/17 05:48:37;;;;;;;5.63;3.92;;;;;;;-3.89;100.00;90244.09;2550775;23;20005;-84
2023/01/17 05:49:38;;;;;;;4.97;3.70;;;;;;;-3.88;100.00;90237.75;2536018;23;20013;-84
2023/01/17 05:50:39;;;;;;;5.70;3.88;;;;;;;-3.89;100.00;90244.09;2538177;23;20009;-83
2023/01/17 05:51:40;;;;;;;3.50;3.20;;;;;;;-3.95;100.00;90237.84;2527372;23;20009;-84
2023/01/17 05:52:51;;;;;;;5.22;3.13;;;;;;;-3.92;100.00;90229.22;2526969;23;20006;-85
2023/01/17 05:53:52;;;;;;;3.38;2.80;;;;;;;-3.99;100.00;90239.78;2541118;23;20005;-82
2023/01/17 05:54:53;;;;;;;5.18;2.10;;;;;;;-4.08;100.00;90227.97;2539581;23;20405;-83
2023/01/17 05:55:54;;;;;;;3.97;2.50;;;;;;;-4.18;100.00;90228.84;2538915;23;20444;-82
2023/01/17 05:56:55;;;;;;;3.60;2.50;;;;;;;-4.17;100.00;90224.38;2539206;23;20014;-83
2023/01/17 05:57:57;;;;;;;3.00;2.17;;;;;;;-4.24;100.00;90225.22;2527235;23;20085;-84
2023/01/17 05:58:58;;;;;;;3.13;2.00;;;;;;;-4.33;100.00;90227.59;2526932;23;20009;-82
2023/01/17 05:59:59;;;;;;;3.67;2.40;;;;;;;-4.24;100.00;90220.00;2538986;23;20009;-84
2023/01/17 06:01:00;;;;;;;2.92;2.20;;;;;;;-4.03;100.00;90218.97;2527340;23;20323;-83
2023/01/17 06:02:01;;;;;;;3.38;2.30;;;;;;;-4.07;100.00;90223.50;2515299;23;20461;-84
2023/01/17 06:03:02;;;;;;;3.03;2.47;;;;;;;-4.08;100.00;90224.63;2527746;23;20006;-82
2023/01/17 06:04:03;;;;;;;2.55;2.10;;;;;;;-3.83;100.00;90226.84;2539080;23;20060;-83
2023/01/17 06:05:05;;;;;;;2.53;1.85;;;;;;;-4.00;100.00;90218.16;2527777;23;20121;-83
2023/01/17 06:06:06;;;;;;;2.05;1.80;;;;;;;-4.10;100.00;90225.00;2527862;23;20037;-82
2023/01/17 06:07:07;;;;;;;2.03;1.83;;;;;;;-4.22;100.00;90217.75;2540307;23;20063;-83
2023/01/17 06:08:09;;;;;;;2.35;1.88;;;;;;;-4.16;100.00;90216.19;2527411;23;20002;-83
2023/01/17 06:09:10;;;;;;;3.33;1.65;;;;;;;-4.26;100.00;90224.88;2529460;23;20017;-83
2023/01/17 06:10:13;;;;;;;2.78;1.90;;;;;;;-4.34;100.00;90215.69;2527482;23;20484;-83
2023/01/17 06:11:14;;;;;;;1.85;1.48;;;;;;;-4.28;100.00;90211.50;2528345;23;20091;-86
2023/01/17 06:12:15;;;;;;;1.42;1.33;;;;;;;-4.32;100.00;90219.38;2528078;23;20014;-84
2023/01/17 06:13:19;;;;;;;1.95;1.25;;;;;;;-4.40;100.00;90214.66;2528047;23;20033;-82
2023/01/17 06:14:20;;;;;;;2.22;1.55;;;;;;;-4.44;100.00;90216.56;2541287;23;20481;-83
2023/01/17 06:15:21;;;;;;;3.05;1.27;;;;;;;-4.56;100.00;90210.03;2540169;23;20061;-83
2023/01/17 06:16:22;;;;;;;2.08;1.40;;;;;;;-4.53;100.00;90209.25;2528186;23;20025;-82
2023/01/17 06:17:23;;;;;;;5.15;1.60;;;;;;;-4.56;100.00;90207.44;2515575;23;20006;-82
2023/01/17 06:18:24;;;;;;;1.88;1.33;;;;;;;-4.61;100.00;90210.47;2527553;23;20610;-82
2023/01/17 06:19:25;;;;;;;1.77;1.27;;;;;;;-4.60;100.00;90217.16;2539900;23;20005;-82
2023/01/17 06:20:26;;;;;;;1.45;1.25;;;;;;;-4.64;100.00;90219.81;2539779;23;20009;-84
2023/01/17 06:21:28;;;;;;;1.63;1.20;;;;;;;-4.61;100.00;90213.06;2527851;23;20010;-83
2023/01/17 06:22:29;;;;;;;2.22;1.10;;;;;;;-4.62;100.00;90214.94;2528367;23;20248;-83
2023/01/17 06:23:30;;;;;;;2.15;1.27;;;;;;;-4.64;100.00;90208.66;2527947;23;20422;-84
2023/01/17 06:24:32;;;;;;;1.70;1.10;;;;;;;-4.73;100.00;90206.53;2526930;23;20010;-83
2023/01/17 06:25:38;;;;;;;6.55;1.33;;;;;;;-4.84;100.00;90204.06;2540022;23;20018;-84